sensor_id;sensor_type;location;lat;lon;timestamp;pressure;altitude;pressure_sealevel;temperature
71081;BMP180;58740;50.672;18.690;2022-12-18T00:01:33;100388.00;;;-2.80
71081;BMP180;58740;50.672;18.690;2022-12-18T00:04:07;100392.20;;;-2.80
71081;BMP180;58740;50.672;18.690;2022-12-18T00:06:40;100387.60;;;-2.80
71081;BMP180;58740;50.672;18.690;2022-12-18T00:09:08;100400.00;;;-2.80
71081;BMP180;58740;50.672;18.690;2022-12-18T00:11:36;100400.00;;;-2.80
71081;BMP180;58740;50.672;18.690;2022-12-18T00:14:04;100408.00;;;-2.80
71081;BMP180;58740;50.672;18.690;2022-12-18T00:16:32;100407.00;;;-2.70
71081;BMP180;58740;50.672;18.690;2022-12-18T00:19:04;100397.00;;;-2.70
71081;BMP180;58740;50.672;18.690;2022-12-18T00:21:33;100404.00;;;-2.70
71081;BMP180;58740;50.672;18.690;2022-12-18T00:24:01;100406.20;;;-2.68
71081;BMP180;58740;50.672;18.690;2022-12-18T00:26:32;100409.20;;;-2.70
71081;BMP180;58740;50.672;18.690;2022-12-18T00:29:11;100413.20;;;-2.70
71081;BMP180;58740;50.672;18.690;2022-12-18T00:31:42;100411.80;;;-2.70
71081;BMP180;58740;50.672;18.690;2022-12-18T00:34:12;100419.40;;;-2.70
71081;BMP180;58740;50.672;18.690;2022-12-18T00:36:41;100413.80;;;-2.70
71081;BMP180;58740;50.672;18.690;2022-12-18T00:39:10;100417.60;;;-2.70
71081;BMP180;58740;50.672;18.690;2022-12-18T00:41:39;100426.20;;;-2.72
71081;BMP180;58740;50.672;18.690;2022-12-18T00:44:25;100430.80;;;-2.70
71081;BMP180;58740;50.672;18.690;2022-12-18T00:46:53;100433.20;;;-2.70
71081;BMP180;58740;50.672;18.690;2022-12-18T00:49:20;100439.60;;;-2.70
71081;BMP180;58740;50.672;18.690;2022-12-18T00:51:48;100442.80;;;-2.68
71081;BMP180;58740;50.672;18.690;2022-12-18T00:54:17;100444.80;;;-2.60
71081;BMP180;58740;50.672;18.690;2022-12-18T00:56:45;100456.20;;;-2.60
71081;BMP180;58740;50.672;18.690;2022-12-18T00:59:17;100462.20;;;-2.60
71081;BMP180;58740;50.672;18.690;2022-12-18T01:01:46;100464.00;;;-2.60
71081;BMP180;58740;50.672;18.690;2022-12-18T01:04:15;100473.80;;;-2.60
71081;BMP180;58740;50.672;18.690;2022-12-18T01:06:42;100473.20;;;-2.62
71081;BMP180;58740;50.672;18.690;2022-12-18T01:09:13;100478.40;;;-2.64
71081;BMP180;58740;50.672;18.690;2022-12-18T01:11:41;100478.20;;;-2.70
71081;BMP180;58740;50.672;18.690;2022-12-18T01:14:09;100483.00;;;-2.70
71081;BMP180;58740;50.672;18.690;2022-12-18T01:16:37;100490.80;;;-2.70
71081;BMP180;58740;50.672;18.690;2022-12-18T01:19:05;100482.60;;;-2.70
71081;BMP180;58740;50.672;18.690;2022-12-18T01:21:33;100483.80;;;-2.60
71081;BMP180;58740;50.672;18.690;2022-12-18T01:24:01;100486.20;;;-2.60
71081;BMP180;58740;50.672;18.690;2022-12-18T01:26:29;100479.60;;;-2.60
71081;BMP180;58740;50.672;18.690;2022-12-18T01:28:57;100484.00;;;-2.60
71081;BMP180;58740;50.672;18.690;2022-12-18T01:31:30;100485.80;;;-2.60
71081;BMP180;58740;50.672;18.690;2022-12-18T01:34:00;100487.80;;;-2.60
71081;BMP180;58740;50.672;18.690;2022-12-18T01:36:32;100485.40;;;-2.60
71081;BMP180;58740;50.672;18.690;2022-12-18T01:39:05;100486.80;;;-2.70
71081;BMP180;58740;50.672;18.690;2022-12-18T01:41:34;100494.60;;;-2.70
71081;BMP180;58740;50.672;18.690;2022-12-18T01:47:59;100489.60;;;-2.80
71081;BMP180;58740;50.672;18.690;2022-12-18T01:50:40;100495.80;;;-2.80
71081;BMP180;58740;50.672;18.690;2022-12-18T01:53:17;100499.00;;;-2.80
71081;BMP180;58740;50.672;18.690;2022-12-18T01:55:57;100502.00;;;-2.74
71081;BMP180;58740;50.672;18.690;2022-12-18T02:01:07;100508.00;;;-2.70
71081;BMP180;58740;50.672;18.690;2022-12-18T02:03:36;100505.20;;;-2.70
71081;BMP180;58740;50.672;18.690;2022-12-18T02:06:12;100516.60;;;-2.70
71081;BMP180;58740;50.672;18.690;2022-12-18T02:08:48;100524.60;;;-2.70
71081;BMP180;58740;50.672;18.690;2022-12-18T02:11:43;100529.60;;;-2.70
71081;BMP180;58740;50.672;18.690;2022-12-18T02:15:13;100529.80;;;-2.80
71081;BMP180;58740;50.672;18.690;2022-12-18T02:17:56;100532.40;;;-2.80
71081;BMP180;58740;50.672;18.690;2022-12-18T02:20:36;100538.00;;;-2.80
71081;BMP180;58740;50.672;18.690;2022-12-18T02:28:52;100548.20;;;-2.90
71081;BMP180;58740;50.672;18.690;2022-12-18T02:31:28;100555.00;;;-2.80
71081;BMP180;58740;50.672;18.690;2022-12-18T02:34:02;100552.20;;;-2.80
71081;BMP180;58740;50.672;18.690;2022-12-18T02:36:33;100561.00;;;-2.80
71081;BMP180;58740;50.672;18.690;2022-12-18T02:39:07;100561.80;;;-2.80
71081;BMP180;58740;50.672;18.690;2022-12-18T02:41:37;100560.00;;;-2.80
71081;BMP180;58740;50.672;18.690;2022-12-18T02:44:13;100564.60;;;-2.80
71081;BMP180;58740;50.672;18.690;2022-12-18T02:46:45;100562.20;;;-2.80
71081;BMP180;58740;50.672;18.690;2022-12-18T02:58:16;100571.80;;;-3.00
71081;BMP180;58740;50.672;18.690;2022-12-18T03:01:02;100578.80;;;-2.98
71081;BMP180;58740;50.672;18.690;2022-12-18T03:03:42;100571.20;;;-2.90
71081;BMP180;58740;50.672;18.690;2022-12-18T03:06:24;100578.00;;;-2.90
71081;BMP180;58740;50.672;18.690;2022-12-18T03:09:09;100586.20;;;-2.80
71081;BMP180;58740;50.672;18.690;2022-12-18T03:11:45;100588.20;;;-2.80
71081;BMP180;58740;50.672;18.690;2022-12-18T03:14:37;100583.80;;;-2.86
71081;BMP180;58740;50.672;18.690;2022-12-18T03:17:13;100585.80;;;-2.90
71081;BMP180;58740;50.672;18.690;2022-12-18T03:19:45;100585.00;;;-2.90
71081;BMP180;58740;50.672;18.690;2022-12-18T03:22:16;100599.20;;;-3.00
71081;BMP180;58740;50.672;18.690;2022-12-18T03:24:46;100600.20;;;-3.00
71081;BMP180;58740;50.672;18.690;2022-12-18T03:27:20;100605.60;;;-3.00
71081;BMP180;58740;50.672;18.690;2022-12-18T03:30:05;100605.60;;;-3.00
71081;BMP180;58740;50.672;18.690;2022-12-18T03:32:50;100611.00;;;-3.00
71081;BMP180;58740;50.672;18.690;2022-12-18T03:35:31;100608.40;;;-3.00
71081;BMP180;58740;50.672;18.690;2022-12-18T03:38:01;100612.80;;;-3.00
71081;BMP180;58740;50.672;18.690;2022-12-18T03:43:56;100616.40;;;-2.90
71081;BMP180;58740;50.672;18.690;2022-12-18T03:46:47;100615.00;;;-2.90
71081;BMP180;58740;50.672;18.690;2022-12-18T03:49:35;100621.00;;;-2.90
71081;BMP180;58740;50.672;18.690;2022-12-18T03:52:30;100619.60;;;-2.90
71081;BMP180;58740;50.672;18.690;2022-12-18T03:55:03;100630.20;;;-3.00
71081;BMP180;58740;50.672;18.690;2022-12-18T03:57:33;100634.40;;;-3.00
71081;BMP180;58740;50.672;18.690;2022-12-18T04:00:21;100634.80;;;-3.00
71081;BMP180;58740;50.672;18.690;2022-12-18T04:02:53;100636.60;;;-3.10
71081;BMP180;58740;50.672;18.690;2022-12-18T04:05:24;100641.00;;;-3.10
71081;BMP180;58740;50.672;18.690;2022-12-18T04:07:54;100639.20;;;-3.10
71081;BMP180;58740;50.672;18.690;2022-12-18T04:10:23;100644.40;;;-3.06
71081;BMP180;58740;50.672;18.690;2022-12-18T04:12:56;100645.40;;;-3.00
71081;BMP180;58740;50.672;18.690;2022-12-18T04:15:24;100646.20;;;-3.00
71081;BMP180;58740;50.672;18.690;2022-12-18T04:17:52;100652.80;;;-3.00
71081;BMP180;58740;50.672;18.690;2022-12-18T04:20:20;100649.60;;;-3.00
71081;BMP180;58740;50.672;18.690;2022-12-18T04:22:47;100648.60;;;-3.02
71081;BMP180;58740;50.672;18.690;2022-12-18T04:25:15;100652.20;;;-3.06
71081;BMP180;58740;50.672;18.690;2022-12-18T04:27:43;100651.60;;;-3.10
71081;BMP180;58740;50.672;18.690;2022-12-18T04:30:11;100659.80;;;-3.10
71081;BMP180;58740;50.672;18.690;2022-12-18T04:32:39;100656.60;;;-3.10
71081;BMP180;58740;50.672;18.690;2022-12-18T04:35:08;100657.60;;;-3.10
71081;BMP180;58740;50.672;18.690;2022-12-18T04:37:38;100662.40;;;-3.10
71081;BMP180;58740;50.672;18.690;2022-12-18T04:40:06;100662.60;;;-3.10
71081;BMP180;58740;50.672;18.690;2022-12-18T04:42:34;100669.80;;;-3.20
71081;BMP180;58740;50.672;18.690;2022-12-18T04:45:02;100663.00;;;-3.20
71081;BMP180;58740;50.672;18.690;2022-12-18T04:47:30;100674.40;;;-3.12
71081;BMP180;58740;50.672;18.690;2022-12-18T04:49:58;100684.00;;;-3.10
71081;BMP180;58740;50.672;18.690;2022-12-18T04:52:26;100684.60;;;-3.10
71081;BMP180;58740;50.672;18.690;2022-12-18T04:54:53;100680.00;;;-3.10
71081;BMP180;58740;50.672;18.690;2022-12-18T04:57:21;100677.40;;;-3.10
71081;BMP180;58740;50.672;18.690;2022-12-18T04:59:49;100681.00;;;-3.10
71081;BMP180;58740;50.672;18.690;2022-12-18T05:02:17;100684.60;;;-3.10
71081;BMP180;58740;50.672;18.690;2022-12-18T05:04:44;100686.60;;;-3.10
71081;BMP180;58740;50.672;18.690;2022-12-18T05:07:12;100691.40;;;-3.20
71081;BMP180;58740;50.672;18.690;2022-12-18T05:09:40;100692.80;;;-3.20
71081;BMP180;58740;50.672;18.690;2022-12-18T05:12:08;100694.00;;;-3.30
71081;BMP180;58740;50.672;18.690;2022-12-18T05:14:36;100696.00;;;-3.30
71081;BMP180;58740;50.672;18.690;2022-12-18T05:17:03;100703.20;;;-3.30
71081;BMP180;58740;50.672;18.690;2022-12-18T05:19:31;100699.40;;;-3.30
71081;BMP180;58740;50.672;18.690;2022-12-18T05:21:59;100708.60;;;-3.30
71081;BMP180;58740;50.672;18.690;2022-12-18T05:24:27;100711.40;;;-3.30
71081;BMP180;58740;50.672;18.690;2022-12-18T05:26:55;100710.00;;;-3.26
71081;BMP180;58740;50.672;18.690;2022-12-18T05:29:22;100717.80;;;-3.20
71081;BMP180;58740;50.672;18.690;2022-12-18T05:31:50;100716.80;;;-3.20
71081;BMP180;58740;50.672;18.690;2022-12-18T05:34:18;100719.20;;;-3.20
71081;BMP180;58740;50.672;18.690;2022-12-18T05:36:46;100720.40;;;-3.20
71081;BMP180;58740;50.672;18.690;2022-12-18T05:39:14;100725.40;;;-3.20
71081;BMP180;58740;50.672;18.690;2022-12-18T05:41:41;100731.20;;;-3.22
71081;BMP180;58740;50.672;18.690;2022-12-18T05:44:10;100730.80;;;-3.30
71081;BMP180;58740;50.672;18.690;2022-12-18T05:46:37;100735.60;;;-3.30
71081;BMP180;58740;50.672;18.690;2022-12-18T05:49:05;100740.00;;;-3.40
71081;BMP180;58740;50.672;18.690;2022-12-18T05:51:33;100742.40;;;-3.40
71081;BMP180;58740;50.672;18.690;2022-12-18T05:54:00;100742.80;;;-3.40
71081;BMP180;58740;50.672;18.690;2022-12-18T05:56:28;100742.20;;;-3.40
71081;BMP180;58740;50.672;18.690;2022-12-18T05:58:56;100743.00;;;-3.40
71081;BMP180;58740;50.672;18.690;2022-12-18T06:01:26;100736.40;;;-3.38
71081;BMP180;58740;50.672;18.690;2022-12-18T06:03:55;100744.00;;;-3.30
71081;BMP180;58740;50.672;18.690;2022-12-18T06:06:26;100745.80;;;-3.30
71081;BMP180;58740;50.672;18.690;2022-12-18T06:08:56;100753.40;;;-3.30
71081;BMP180;58740;50.672;18.690;2022-12-18T06:11:26;100752.60;;;-3.30
71081;BMP180;58740;50.672;18.690;2022-12-18T06:13:56;100753.80;;;-3.30
71081;BMP180;58740;50.672;18.690;2022-12-18T06:16:30;100756.40;;;-3.36
71081;BMP180;58740;50.672;18.690;2022-12-18T06:19:03;100758.80;;;-3.40
71081;BMP180;58740;50.672;18.690;2022-12-18T06:21:34;100762.00;;;-3.40
71081;BMP180;58740;50.672;18.690;2022-12-18T06:24:02;100761.00;;;-3.46
71081;BMP180;58740;50.672;18.690;2022-12-18T06:26:30;100764.00;;;-3.50
71081;BMP180;58740;50.672;18.690;2022-12-18T06:28:58;100768.60;;;-3.50
71081;BMP180;58740;50.672;18.690;2022-12-18T06:31:26;100772.40;;;-3.50
71081;BMP180;58740;50.672;18.690;2022-12-18T06:33:54;100783.40;;;-3.50
71081;BMP180;58740;50.672;18.690;2022-12-18T06:36:22;100788.20;;;-3.50
71081;BMP180;58740;50.672;18.690;2022-12-18T06:38:50;100787.00;;;-3.50
71081;BMP180;58740;50.672;18.690;2022-12-18T06:41:20;100798.80;;;-3.44
71081;BMP180;58740;50.672;18.690;2022-12-18T06:43:49;100799.60;;;-3.40
71081;BMP180;58740;50.672;18.690;2022-12-18T06:46:17;100808.00;;;-3.40
71081;BMP180;58740;50.672;18.690;2022-12-18T06:48:49;100814.00;;;-3.40
71081;BMP180;58740;50.672;18.690;2022-12-18T06:51:20;100816.40;;;-3.40
71081;BMP180;58740;50.672;18.690;2022-12-18T06:53:48;100812.00;;;-3.50
71081;BMP180;58740;50.672;18.690;2022-12-18T06:56:16;100823.60;;;-3.50
71081;BMP180;58740;50.672;18.690;2022-12-18T06:58:44;100816.80;;;-3.50
71081;BMP180;58740;50.672;18.690;2022-12-18T07:01:13;100820.60;;;-3.50
71081;BMP180;58740;50.672;18.690;2022-12-18T07:03:42;100820.40;;;-3.54
71081;BMP180;58740;50.672;18.690;2022-12-18T07:06:18;100823.00;;;-3.60
71081;BMP180;58740;50.672;18.690;2022-12-18T07:08:47;100830.60;;;-3.60
71081;BMP180;58740;50.672;18.690;2022-12-18T07:11:16;100837.80;;;-3.60
71081;BMP180;58740;50.672;18.690;2022-12-18T07:13:45;100837.40;;;-3.60
71081;BMP180;58740;50.672;18.690;2022-12-18T07:16:17;100835.20;;;-3.60
71081;BMP180;58740;50.672;18.690;2022-12-18T07:18:54;100839.00;;;-3.56
71081;BMP180;58740;50.672;18.690;2022-12-18T07:21:24;100839.00;;;-3.50
71081;BMP180;58740;50.672;18.690;2022-12-18T07:23:52;100854.40;;;-3.50
71081;BMP180;58740;50.672;18.690;2022-12-18T07:26:21;100853.00;;;-3.50
71081;BMP180;58740;50.672;18.690;2022-12-18T07:28:50;100862.00;;;-3.50
71081;BMP180;58740;50.672;18.690;2022-12-18T07:31:20;100868.20;;;-3.48
71081;BMP180;58740;50.672;18.690;2022-12-18T07:33:50;100869.80;;;-3.50
71081;BMP180;58740;50.672;18.690;2022-12-18T07:36:19;100874.20;;;-3.50
71081;BMP180;58740;50.672;18.690;2022-12-18T07:38:48;100873.60;;;-3.50
71081;BMP180;58740;50.672;18.690;2022-12-18T07:41:17;100880.80;;;-3.50
71081;BMP180;58740;50.672;18.690;2022-12-18T07:43:46;100884.20;;;-3.50
71081;BMP180;58740;50.672;18.690;2022-12-18T07:46:16;100882.80;;;-3.50
71081;BMP180;58740;50.672;18.690;2022-12-18T07:48:44;100879.60;;;-3.50
71081;BMP180;58740;50.672;18.690;2022-12-18T07:51:18;100877.60;;;-3.50
71081;BMP180;58740;50.672;18.690;2022-12-18T07:53:46;100884.60;;;-3.40
71081;BMP180;58740;50.672;18.690;2022-12-18T07:56:20;100877.20;;;-3.40
71081;BMP180;58740;50.672;18.690;2022-12-18T07:58:58;100873.20;;;-3.30
71081;BMP180;58740;50.672;18.690;2022-12-18T08:01:26;100867.60;;;-3.30
71081;BMP180;58740;50.672;18.690;2022-12-18T08:03:55;100866.00;;;-3.20
71081;BMP180;58740;50.672;18.690;2022-12-18T08:06:23;100870.20;;;-3.20
71081;BMP180;58740;50.672;18.690;2022-12-18T08:08:53;100867.40;;;-3.20
71081;BMP180;58740;50.672;18.690;2022-12-18T08:11:23;100867.20;;;-3.20
71081;BMP180;58740;50.672;18.690;2022-12-18T08:13:53;100876.00;;;-3.30
71081;BMP180;58740;50.672;18.690;2022-12-18T08:16:23;100876.40;;;-3.30
71081;BMP180;58740;50.672;18.690;2022-12-18T08:18:53;100887.80;;;-3.30
71081;BMP180;58740;50.672;18.690;2022-12-18T08:21:26;100886.60;;;-3.30
71081;BMP180;58740;50.672;18.690;2022-12-18T08:23:57;100890.00;;;-3.30
71081;BMP180;58740;50.672;18.690;2022-12-18T08:26:28;100889.60;;;-3.32
71081;BMP180;58740;50.672;18.690;2022-12-18T08:28:57;100885.80;;;-3.32
71081;BMP180;58740;50.672;18.690;2022-12-18T08:31:28;100897.20;;;-3.30
71081;BMP180;58740;50.672;18.690;2022-12-18T08:33:57;100896.00;;;-3.30
71081;BMP180;58740;50.672;18.690;2022-12-18T08:36:25;100894.40;;;-3.26
71081;BMP180;58740;50.672;18.690;2022-12-18T08:38:54;100904.80;;;-3.20
71081;BMP180;58740;50.672;18.690;2022-12-18T08:41:22;100908.60;;;-3.18
71081;BMP180;58740;50.672;18.690;2022-12-18T08:43:50;100901.60;;;-3.10
71081;BMP180;58740;50.672;18.690;2022-12-18T08:46:42;100913.80;;;-3.10
71081;BMP180;58740;50.672;18.690;2022-12-18T08:49:11;100920.40;;;-3.10
71081;BMP180;58740;50.672;18.690;2022-12-18T08:51:40;100920.40;;;-3.12
71081;BMP180;58740;50.672;18.690;2022-12-18T08:54:13;100930.40;;;-3.20
71081;BMP180;58740;50.672;18.690;2022-12-18T08:56:41;100939.60;;;-3.20
71081;BMP180;58740;50.672;18.690;2022-12-18T08:59:09;100934.80;;;-3.20
71081;BMP180;58740;50.672;18.690;2022-12-18T09:01:46;100927.80;;;-3.20
71081;BMP180;58740;50.672;18.690;2022-12-18T09:04:15;100935.80;;;-3.20
71081;BMP180;58740;50.672;18.690;2022-12-18T09:06:43;100936.20;;;-3.20
71081;BMP180;58740;50.672;18.690;2022-12-18T09:09:11;100939.40;;;-3.20
71081;BMP180;58740;50.672;18.690;2022-12-18T09:11:39;100934.00;;;-3.20
71081;BMP180;58740;50.672;18.690;2022-12-18T09:14:06;100944.00;;;-3.10
71081;BMP180;58740;50.672;18.690;2022-12-18T09:16:34;100955.20;;;-3.10
71081;BMP180;58740;50.672;18.690;2022-12-18T09:19:04;100945.40;;;-3.02
71081;BMP180;58740;50.672;18.690;2022-12-18T09:21:37;100943.80;;;-3.00
71081;BMP180;58740;50.672;18.690;2022-12-18T09:24:14;100942.00;;;-3.00
71081;BMP180;58740;50.672;18.690;2022-12-18T09:26:43;100941.80;;;-3.00
71081;BMP180;58740;50.672;18.690;2022-12-18T09:29:15;100941.80;;;-3.00
71081;BMP180;58740;50.672;18.690;2022-12-18T09:31:45;100946.20;;;-3.00
71081;BMP180;58740;50.672;18.690;2022-12-18T09:34:14;100949.60;;;-3.00
71081;BMP180;58740;50.672;18.690;2022-12-18T09:36:43;100947.00;;;-3.00
71081;BMP180;58740;50.672;18.690;2022-12-18T09:39:11;100945.00;;;-3.00
71081;BMP180;58740;50.672;18.690;2022-12-18T09:41:51;100947.80;;;-3.00
71081;BMP180;58740;50.672;18.690;2022-12-18T09:44:43;100956.80;;;-3.04
71081;BMP180;58740;50.672;18.690;2022-12-18T09:47:24;100950.60;;;-3.10
71081;BMP180;58740;50.672;18.690;2022-12-18T09:50:04;100953.00;;;-3.10
71081;BMP180;58740;50.672;18.690;2022-12-18T09:52:42;100953.60;;;-3.00
71081;BMP180;58740;50.672;18.690;2022-12-18T09:55:25;100950.20;;;-2.92
71081;BMP180;58740;50.672;18.690;2022-12-18T10:00:37;100950.00;;;-2.90
71081;BMP180;58740;50.672;18.690;2022-12-18T10:03:14;100950.40;;;-2.82
71081;BMP180;58740;50.672;18.690;2022-12-18T10:06:02;100946.20;;;-2.80
71081;BMP180;58740;50.672;18.690;2022-12-18T10:09:02;100945.40;;;-2.90
71081;BMP180;58740;50.672;18.690;2022-12-18T10:14:56;100923.80;;;-2.90
71081;BMP180;58740;50.672;18.690;2022-12-18T10:20:44;100920.00;;;-2.86
71081;BMP180;58740;50.672;18.690;2022-12-18T10:23:33;100924.20;;;-2.80
71081;BMP180;58740;50.672;18.690;2022-12-18T10:26:12;100925.00;;;-2.80
71081;BMP180;58740;50.672;18.690;2022-12-18T10:28:41;100919.40;;;-2.80
71081;BMP180;58740;50.672;18.690;2022-12-18T10:31:18;100915.20;;;-2.80
71081;BMP180;58740;50.672;18.690;2022-12-18T10:33:46;100915.20;;;-2.78
71081;BMP180;58740;50.672;18.690;2022-12-18T10:36:14;100914.80;;;-2.70
71081;BMP180;58740;50.672;18.690;2022-12-18T10:38:42;100905.00;;;-2.60
71081;BMP180;58740;50.672;18.690;2022-12-18T10:44:18;100906.60;;;-2.50
71081;BMP180;58740;50.672;18.690;2022-12-18T10:46:50;100894.40;;;-2.40
71081;BMP180;58740;50.672;18.690;2022-12-18T10:49:32;100886.00;;;-2.40
71081;BMP180;58740;50.672;18.690;2022-12-18T10:52:19;100887.60;;;-2.30
71081;BMP180;58740;50.672;18.690;2022-12-18T10:54:59;100887.20;;;-2.30
71081;BMP180;58740;50.672;18.690;2022-12-18T10:57:34;100878.20;;;-2.30
71081;BMP180;58740;50.672;18.690;2022-12-18T11:00:28;100880.20;;;-2.40
71081;BMP180;58740;50.672;18.690;2022-12-18T11:02:57;100884.80;;;-2.50
71081;BMP180;58740;50.672;18.690;2022-12-18T11:05:32;100876.20;;;-2.60
71081;BMP180;58740;50.672;18.690;2022-12-18T11:08:01;100876.40;;;-2.68
71081;BMP180;58740;50.672;18.690;2022-12-18T11:10:36;100884.60;;;-2.70
71081;BMP180;58740;50.672;18.690;2022-12-18T11:13:21;100882.00;;;-2.60
71081;BMP180;58740;50.672;18.690;2022-12-18T11:15:50;100892.60;;;-2.60
71081;BMP180;58740;50.672;18.690;2022-12-18T11:18:32;100890.40;;;-2.56
71081;BMP180;58740;50.672;18.690;2022-12-18T11:21:11;100890.20;;;-2.50
71081;BMP180;58740;50.672;18.690;2022-12-18T11:23:52;100889.60;;;-2.50
71081;BMP180;58740;50.672;18.690;2022-12-18T11:26:34;100894.00;;;-2.50
71081;BMP180;58740;50.672;18.690;2022-12-18T11:29:17;100896.00;;;-2.50
71081;BMP180;58740;50.672;18.690;2022-12-18T11:31:46;100892.20;;;-2.58
71081;BMP180;58740;50.672;18.690;2022-12-18T11:34:30;100895.00;;;-2.60
71081;BMP180;58740;50.672;18.690;2022-12-18T11:37:02;100903.00;;;-2.56
71081;BMP180;58740;50.672;18.690;2022-12-18T11:39:39;100894.60;;;-2.50
71081;BMP180;58740;50.672;18.690;2022-12-18T11:42:48;100898.60;;;-2.50
71081;BMP180;58740;50.672;18.690;2022-12-18T11:45:27;100898.40;;;-2.50
71081;BMP180;58740;50.672;18.690;2022-12-18T11:48:03;100903.40;;;-2.44
71081;BMP180;58740;50.672;18.690;2022-12-18T11:50:46;100899.40;;;-2.40
71081;BMP180;58740;50.672;18.690;2022-12-18T11:53:16;100909.80;;;-2.40
71081;BMP180;58740;50.672;18.690;2022-12-18T11:59:29;100904.60;;;-2.40
71081;BMP180;58740;50.672;18.690;2022-12-18T12:11:10;100903.80;;;-2.30
71081;BMP180;58740;50.672;18.690;2022-12-18T12:13:47;100918.60;;;-2.30
71081;BMP180;58740;50.672;18.690;2022-12-18T12:16:22;100910.60;;;-2.30
71081;BMP180;58740;50.672;18.690;2022-12-18T12:19:19;100919.00;;;-2.30
71081;BMP180;58740;50.672;18.690;2022-12-18T12:22:07;100913.20;;;-2.30
71081;BMP180;58740;50.672;18.690;2022-12-18T12:25:18;100919.40;;;-2.30
71081;BMP180;58740;50.672;18.690;2022-12-18T12:28:19;100921.00;;;-2.30
71081;BMP180;58740;50.672;18.690;2022-12-18T12:39:11;100924.60;;;-2.40
71081;BMP180;58740;50.672;18.690;2022-12-18T12:41:46;100929.80;;;-2.46
71081;BMP180;58740;50.672;18.690;2022-12-18T12:44:43;100926.60;;;-2.48
71081;BMP180;58740;50.672;18.690;2022-12-18T12:47:33;100932.20;;;-2.44
71081;BMP180;58740;50.672;18.690;2022-12-18T12:50:14;100936.40;;;-2.40
71081;BMP180;58740;50.672;18.690;2022-12-18T12:52:48;100927.80;;;-2.40
71081;BMP180;58740;50.672;18.690;2022-12-18T12:55:29;100930.20;;;-2.40
71081;BMP180;58740;50.672;18.690;2022-12-18T12:58:15;100926.40;;;-2.40
71081;BMP180;58740;50.672;18.690;2022-12-18T13:01:04;100921.80;;;-2.40
71081;BMP180;58740;50.672;18.690;2022-12-18T13:09:33;100929.80;;;-2.40
71081;BMP180;58740;50.672;18.690;2022-12-18T13:12:11;100938.60;;;-2.40
71081;BMP180;58740;50.672;18.690;2022-12-18T13:18:13;100939.60;;;-2.50
71081;BMP180;58740;50.672;18.690;2022-12-18T13:21:12;100945.80;;;-2.50
71081;BMP180;58740;50.672;18.690;2022-12-18T13:23:43;100937.20;;;-2.50
71081;BMP180;58740;50.672;18.690;2022-12-18T13:28:57;100945.20;;;-2.50
71081;BMP180;58740;50.672;18.690;2022-12-18T13:34:16;100945.40;;;-2.50
71081;BMP180;58740;50.672;18.690;2022-12-18T13:39:59;100943.00;;;-2.50
71081;BMP180;58740;50.672;18.690;2022-12-18T13:42:49;100940.40;;;-2.52
71081;BMP180;58740;50.672;18.690;2022-12-18T13:46:04;100940.60;;;-2.56
71081;BMP180;58740;50.672;18.690;2022-12-18T13:48:37;100936.00;;;-2.60
71081;BMP180;58740;50.672;18.690;2022-12-18T13:51:09;100936.20;;;-2.60
71081;BMP180;58740;50.672;18.690;2022-12-18T13:53:46;100937.80;;;-2.60
71081;BMP180;58740;50.672;18.690;2022-12-18T13:56:26;100938.80;;;-2.70
71081;BMP180;58740;50.672;18.690;2022-12-18T13:59:34;100933.80;;;-2.70
71081;BMP180;58740;50.672;18.690;2022-12-18T14:02:17;100938.00;;;-2.70
71081;BMP180;58740;50.672;18.690;2022-12-18T14:04:46;100939.40;;;-2.70
71081;BMP180;58740;50.672;18.690;2022-12-18T14:07:26;100941.80;;;-2.70
71081;BMP180;58740;50.672;18.690;2022-12-18T14:10:02;100949.80;;;-2.70
71081;BMP180;58740;50.672;18.690;2022-12-18T14:12:51;100941.80;;;-2.70
71081;BMP180;58740;50.672;18.690;2022-12-18T14:15:34;100933.80;;;-2.80
71081;BMP180;58740;50.672;18.690;2022-12-18T14:21:04;100938.20;;;-3.00
71081;BMP180;58740;50.672;18.690;2022-12-18T14:23:41;100942.40;;;-3.10
71081;BMP180;58740;50.672;18.690;2022-12-18T14:26:29;100940.00;;;-3.20
71081;BMP180;58740;50.672;18.690;2022-12-18T14:29:00;100941.40;;;-3.30
71081;BMP180;58740;50.672;18.690;2022-12-18T14:31:31;100938.00;;;-3.38
71081;BMP180;58740;50.672;18.690;2022-12-18T14:33:59;100948.60;;;-3.44
71081;BMP180;58740;50.672;18.690;2022-12-18T14:36:29;100949.20;;;-3.50
71081;BMP180;58740;50.672;18.690;2022-12-18T14:38:58;100943.20;;;-3.60
71081;BMP180;58740;50.672;18.690;2022-12-18T14:41:26;100945.00;;;-3.70
71081;BMP180;58740;50.672;18.690;2022-12-18T14:44:06;100954.40;;;-3.80
71081;BMP180;58740;50.672;18.690;2022-12-18T14:46:42;100959.60;;;-3.90
71081;BMP180;58740;50.672;18.690;2022-12-18T14:49:33;100961.60;;;-4.00
71081;BMP180;58740;50.672;18.690;2022-12-18T14:52:06;100970.60;;;-4.00
71081;BMP180;58740;50.672;18.690;2022-12-18T14:54:46;100967.80;;;-4.10
71081;BMP180;58740;50.672;18.690;2022-12-18T14:57:23;100972.40;;;-4.20
71081;BMP180;58740;50.672;18.690;2022-12-18T14:59:51;100982.60;;;-4.20
71081;BMP180;58740;50.672;18.690;2022-12-18T15:02:27;100973.40;;;-4.22
71081;BMP180;58740;50.672;18.690;2022-12-18T15:05:05;100975.80;;;-4.30
71081;BMP180;58740;50.672;18.690;2022-12-18T15:07:51;100979.20;;;-4.40
71081;BMP180;58740;50.672;18.690;2022-12-18T15:10:22;100978.20;;;-4.40
71081;BMP180;58740;50.672;18.690;2022-12-18T15:13:21;100985.00;;;-4.50
71081;BMP180;58740;50.672;18.690;2022-12-18T15:15:50;100991.40;;;-4.60
71081;BMP180;58740;50.672;18.690;2022-12-18T15:18:30;100987.80;;;-4.70
71081;BMP180;58740;50.672;18.690;2022-12-18T15:21:09;100988.80;;;-4.78
71081;BMP180;58740;50.672;18.690;2022-12-18T15:26:14;101005.60;;;-4.94
71081;BMP180;58740;50.672;18.690;2022-12-18T15:28:53;101004.80;;;-5.00
71081;BMP180;58740;50.672;18.690;2022-12-18T15:31:32;101007.80;;;-5.10
71081;BMP180;58740;50.672;18.690;2022-12-18T15:34:14;101008.40;;;-5.20
71081;BMP180;58740;50.672;18.690;2022-12-18T15:36:45;100999.20;;;-5.30
71081;BMP180;58740;50.672;18.690;2022-12-18T15:39:13;100996.20;;;-5.30
71081;BMP180;58740;50.672;18.690;2022-12-18T15:41:41;101003.60;;;-5.30
71081;BMP180;58740;50.672;18.690;2022-12-18T15:44:29;100996.00;;;-5.30